Time;durP1;ratioP1;P1;durP2;ratioP2;P2;SDS_P1;SDS_P2;PMS_P1;PMS_P2;Temp;Humidity;BMP_temperature;BMP_pressure;BME280_temperature;BME280_humidity;BME280_pressure;Samples;Min_cycle;Max_cycle;Signal;HPM_P1;HPM_P2
2022/09/28 00:00:37;;;;;;;1.33;1.23;;;;;;;5.77;100.00;99065.34;4991330;28;20205;-72
2022/09/28 00:03:05;;;;;;;1.50;1.27;;;;;;;5.65;100.00;99068.31;4999731;28;20220;-71
2022/09/28 00:05:32;;;;;;;1.30;1.20;;;;;;;5.62;100.00;99066.66;5001919;28;20205;-72
2022/09/28 00:07:58;;;;;;;1.93;1.47;;;;;;;5.69;100.00;99064.72;4994110;28;20230;-71
2022/09/28 00:10:24;;;;;;;1.97;1.50;;;;;;;5.72;100.00;99064.66;4997843;28;20945;-72
2022/09/28 00:12:54;;;;;;;1.53;1.23;;;;;;;5.68;100.00;99068.19;4999318;28;20209;-72
2022/09/28 00:15:23;;;;;;;1.47;1.37;;;;;;;5.71;100.00;99062.94;4997684;28;20631;-71
2022/09/28 00:17:50;;;;;;;1.33;1.23;;;;;;;5.59;100.00;99064.16;4996497;28;20344;-72
2022/09/28 00:20:18;;;;;;;1.67;1.30;;;;;;;5.58;100.00;99061.66;5000353;28;20467;-72
2022/09/28 00:22:44;;;;;;;2.37;1.40;;;;;;;5.49;100.00;99060.19;4998884;28;20661;-72
2022/09/28 00:25:11;;;;;;;1.40;1.30;;;;;;;5.57;100.00;99058.19;4997390;28;20211;-72
2022/09/28 00:27:37;;;;;;;1.70;1.40;;;;;;;5.57;100.00;99057.34;4999415;28;20719;-71
2022/09/28 00:30:04;;;;;;;1.60;1.50;;;;;;;5.50;100.00;99054.97;4998448;28;20224;-71
2022/09/28 00:32:32;;;;;;;2.37;1.20;;;;;;;5.42;100.00;99053.50;4997514;28;20217;-71
2022/09/28 00:34:59;;;;;;;1.50;1.40;;;;;;;5.39;100.00;99054.44;5000125;28;20219;-71
2022/09/28 00:37:26;;;;;;;1.40;1.10;;;;;;;5.44;100.00;99059.47;4994368;28;20208;-70
2022/09/28 00:39:52;;;;;;;1.17;1.07;;;;;;;5.31;100.00;99053.81;4996827;28;20543;-72
2022/09/28 00:42:21;;;;;;;1.30;1.00;;;;;;;5.21;100.00;99049.81;5003434;28;20193;-72
2022/09/28 00:44:49;;;;;;;1.87;1.57;;;;;;;5.26;100.00;99050.53;5014205;28;20196;-71
2022/09/28 00:47:26;;;;;;;1.80;1.20;;;;;;;5.24;100.00;99049.72;4997286;28;20220;-71
2022/09/28 00:49:56;;;;;;;2.60;1.73;;;;;;;5.27;100.00;99044.47;4997692;28;20233;-71
2022/09/28 00:52:27;;;;;;;2.40;1.40;;;;;;;5.26;100.00;99043.63;4998161;28;20958;-70
2022/09/28 00:54:56;;;;;;;1.50;1.23;;;;;;;5.30;100.00;99040.03;5014320;28;20215;-72
2022/09/28 00:57:23;;;;;;;1.63;1.30;;;;;;;5.40;100.00;99043.22;4999076;28;20296;-72
2022/09/28 00:59:51;;;;;;;3.03;1.47;;;;;;;5.47;100.00;99039.53;4997567;28;20592;-72
2022/09/28 01:02:17;;;;;;;3.83;1.40;;;;;;;5.43;100.00;99039.66;4998947;28;20248;-70
2022/09/28 01:04:44;;;;;;;2.10;1.70;;;;;;;5.41;100.00;99034.53;4995436;28;20200;-71
2022/09/28 01:07:12;;;;;;;1.83;1.20;;;;;;;5.42;100.00;99033.66;4997108;28;20215;-71
2022/09/28 01:09:39;;;;;;;2.37;1.40;;;;;;;5.39;100.00;99041.50;5000583;28;20251;-71
2022/09/28 01:12:07;;;;;;;1.50;1.40;;;;;;;5.43;100.00;99040.50;4995830;28;20254;-72
2022/09/28 01:14:34;;;;;;;1.93;1.37;;;;;;;5.45;100.00;99038.75;5016532;28;20251;-72
2022/09/28 01:17:07;;;;;;;3.63;1.60;;;;;;;5.50;100.00;99030.84;4998146;28;20823;-72
2022/09/28 01:20:09;;;;;;;1.57;1.47;;;;;;;5.62;100.00;99034.78;4995418;28;20246;-71
2022/09/28 01:23:11;;;;;;;1.57;1.30;;;;;;;5.59;100.00;99030.53;4992911;28;20212;-72
2022/09/28 01:25:42;;;;;;;1.67;1.40;;;;;;;5.68;100.00;99029.41;4989606;28;20691;-72
2022/09/28 01:28:13;;;;;;;1.73;1.53;;;;;;;5.73;100.00;99029.28;5013293;28;20235;-72
2022/09/28 01:30:44;;;;;;;4.90;1.40;;;;;;;5.74;100.00;99026.66;4998390;28;20224;-72
2022/09/28 01:33:17;;;;;;;1.83;1.50;;;;;;;5.78;100.00;99032.56;5013787;28;20209;-71
2022/09/28 01:35:50;;;;;;;1.60;1.50;;;;;;;5.80;100.00;99029.03;4992071;28;20681;-72
2022/09/28 01:38:21;;;;;;;1.80;1.60;;;;;;;5.84;100.00;99027.19;4995732;28;20385;-72
2022/09/28 01:40:50;;;;;;;1.50;1.33;;;;;;;5.87;100.00;99024.50;4996060;28;20222;-71
2022/09/28 01:43:23;;;;;;;1.27;1.17;;;;;;;5.90;100.00;99033.91;4999435;28;20283;-72
2022/09/28 01:45:54;;;;;;;1.70;1.43;;;;;;;5.78;100.00;99019.63;4994113;28;20233;-70
2022/09/28 01:48:26;;;;;;;1.77;1.40;;;;;;;5.86;100.00;99021.06;5000636;28;20922;-71
2022/09/28 01:50:57;;;;;;;1.57;1.30;;;;;;;5.80;100.00;99010.91;5014001;28;20731;-72
2022/09/28 01:53:28;;;;;;;1.33;1.20;;;;;;;5.78;100.00;99015.28;4993377;28;20239;-71
2022/09/28 01:56:00;;;;;;;1.83;1.30;;;;;;;5.70;100.00;99012.13;4993913;28;20208;-72
2022/09/28 01:58:34;;;;;;;2.13;1.90;;;;;;;5.68;100.00;99013.91;5009375;28;20216;-71
2022/09/28 02:01:05;;;;;;;1.57;1.33;;;;;;;5.65;100.00;99008.84;4990878;28;20201;-72
2022/09/28 02:03:38;;;;;;;1.53;1.30;;;;;;;5.63;100.00;99008.88;5012116;28;20685;-71
2022/09/28 02:06:11;;;;;;;3.03;1.80;;;;;;;5.49;100.00;98996.41;4994828;28;20594;-71
2022/09/28 02:08:43;;;;;;;1.40;1.30;;;;;;;5.52;100.00;98994.59;5016446;23;20228;-69
2022/09/28 02:11:14;;;;;;;1.70;1.60;;;;;;;5.54;100.00;98997.97;5034995;28;20216;-70
2022/09/28 02:13:45;;;;;;;2.13;1.70;;;;;;;5.42;100.00;98999.22;5020120;28;20208;-71
2022/09/28 02:16:17;;;;;;;1.80;1.57;;;;;;;5.33;100.00;99000.34;5016272;28;20274;-71
2022/09/28 02:18:44;;;;;;;2.17;1.97;;;;;;;5.28;100.00;99000.47;5018506;28;20226;-72
2022/09/28 02:21:17;;;;;;;2.13;1.87;;;;;;;5.25;100.00;99003.16;5013874;28;20203;-71
2022/09/28 02:23:52;;;;;;;1.77;1.40;;;;;;;5.29;100.00;98993.56;5032459;28;20208;-70
2022/09/28 02:26:22;;;;;;;1.60;1.23;;;;;;;5.28;100.00;99000.47;5016259;28;20673;-72
2022/09/28 02:28:50;;;;;;;1.50;1.40;;;;;;;5.21;100.00;98995.56;5018044;28;20222;-71
2022/09/28 02:31:16;;;;;;;2.57;1.60;;;;;;;5.03;100.00;98997.78;5016095;28;20317;-70
2022/09/28 02:33:44;;;;;;;1.70;1.60;;;;;;;5.04;100.00;98994.31;5014076;28;20644;-71
2022/09/28 02:36:11;;;;;;;1.80;1.50;;;;;;;5.12;100.00;98992.34;5015646;28;20204;-71
2022/09/28 02:38:38;;;;;;;2.20;1.53;;;;;;;5.04;100.00;98986.56;5017885;28;20259;-71
2022/09/28 02:41:14;;;;;;;1.73;1.40;;;;;;;5.10;100.00;98986.38;5012278;28;20203;-71
2022/09/28 02:43:56;;;;;;;2.90;1.10;;;;;;;4.95;100.00;98984.25;5017825;28;20675;-71
2022/09/28 02:46:29;;;;;;;1.47;1.37;;;;;;;5.00;100.00;98991.88;5012029;28;20249;-70
2022/09/28 02:49:23;;;;;;;1.50;1.40;;;;;;;4.92;100.00;98984.34;5019297;28;20811;-71
2022/09/28 02:52:05;;;;;;;2.73;1.50;;;;;;;4.96;100.00;98977.34;5016589;28;20215;-71
2022/09/28 02:54:44;;;;;;;1.57;1.47;;;;;;;4.93;100.00;98983.44;5018165;28;21457;-70
2022/09/28 02:57:22;;;;;;;1.77;1.20;;;;;;;4.98;100.00;98981.59;5014507;28;20200;-71
2022/09/28 03:00:01;;;;;;;1.47;1.30;;;;;;;4.89;100.00;98980.13;5018663;28;20220;-70
2022/09/28 03:02:33;;;;;;;1.53;1.40;;;;;;;4.79;100.00;98970.09;5014851;28;20931;-71
2022/09/28 03:05:12;;;;;;;1.93;1.30;;;;;;;4.79;100.00;98978.69;5015761;28;20200;-70
2022/09/28 03:07:45;;;;;;;1.00;0.97;;;;;;;4.74;100.00;98980.53;5015471;28;20237;-71
2022/09/28 03:10:17;;;;;;;7.30;1.60;;;;;;;4.77;100.00;98975.31;5016930;28;20323;-71
2022/09/28 03:12:46;;;;;;;1.33;1.17;;;;;;;4.82;100.00;98972.56;5017623;28;20211;-71
2022/09/28 03:15:21;;;;;;;1.70;1.53;;;;;;;4.84;100.00;98970.81;5016478;28;20706;-71
2022/09/28 03:17:48;;;;;;;2.47;1.20;;;;;;;4.68;100.00;98968.66;5013909;28;20191;-71
2022/09/28 03:20:15;;;;;;;1.27;1.17;;;;;;;4.57;100.00;98968.09;5030980;28;20626;-70
2022/09/28 03:22:41;;;;;;;1.33;1.23;;;;;;;4.63;100.00;98965.38;5013616;28;20211;-71
2022/09/28 03:25:09;;;;;;;1.27;1.13;;;;;;;4.58;100.00;98963.81;5016128;28;20237;-72
2022/09/28 03:27:37;;;;;;;1.73;1.30;;;;;;;4.60;100.00;98956.88;5017045;28;20204;-71
2022/09/28 03:30:05;;;;;;;1.70;1.30;;;;;;;4.50;100.00;98961.41;5014012;28;20229;-71
2022/09/28 03:32:34;;;;;;;1.27;1.10;;;;;;;4.39;100.00;98958.31;5014972;28;20228;-71
2022/09/28 03:35:00;;;;;;;2.07;1.20;;;;;;;4.44;100.00;98956.44;5029397;28;20293;-71
2022/09/28 03:37:27;;;;;;;1.17;1.07;;;;;;;4.37;100.00;98955.75;5013327;28;20215;-71
2022/09/28 03:39:54;;;;;;;1.73;1.20;;;;;;;4.43;100.00;98954.75;5015142;28;20208;-72
2022/09/28 03:42:20;;;;;;;3.90;1.50;;;;;;;4.41;100.00;98951.38;5016488;28;20703;-72
2022/09/28 03:44:50;;;;;;;1.27;1.17;;;;;;;4.39;100.00;98958.31;5013161;28;20296;-71
2022/09/28 03:47:18;;;;;;;1.20;1.10;;;;;;;4.37;100.00;98953.19;5017104;28;20630;-71
2022/09/28 03:49:46;;;;;;;5.63;1.10;;;;;;;4.42;100.00;98947.91;5017952;28;20219;-72
2022/09/28 03:52:13;;;;;;;1.53;1.23;;;;;;;4.27;100.00;98949.16;5013200;28;20215;-71
2022/09/28 03:54:40;;;;;;;1.27;1.17;;;;;;;4.27;100.00;98944.00;5015635;28;20616;-71
2022/09/28 03:57:06;;;;;;;1.93;1.40;;;;;;;4.30;100.00;98939.59;5015895;28;20211;-71
2022/09/28 03:59:36;;;;;;;1.40;1.30;;;;;;;4.29;100.00;98940.50;5017983;28;20494;-71
2022/09/28 04:02:03;;;;;;;2.30;1.30;;;;;;;4.30;100.00;98934.44;5015856;28;20278;-71
2022/09/28 04:04:31;;;;;;;1.20;1.10;;;;;;;4.27;100.00;98934.50;5018457;28;20703;-71
2022/09/28 04:06:58;;;;;;;1.70;1.40;;;;;;;4.30;100.00;98931.03;5012552;28;20208;-71
2022/09/28 04:09:26;;;;;;;0.80;0.80;;;;;;;4.34;100.00;98933.47;5015037;28;20991;-71
2022/09/28 04:11:54;;;;;;;1.50;1.40;;;;;;;4.38;100.00;98934.25;5025213;28;20216;-72
2022/09/28 04:14:20;;;;;;;2.13;1.40;;;;;;;4.31;100.00;98935.28;5015313;28;20215;-72
2022/09/28 04:16:47;;;;;;;1.27;1.10;;;;;;;4.22;100.00;98933.81;5015862;28;20207;-71
2022/09/28 04:19:15;;;;;;;0.87;0.83;;;;;;;4.24;100.00;98926.88;5005855;28;20216;-71
2022/09/28 04:21:51;;;;;;;2.33;1.47;;;;;;;4.31;100.00;98935.28;5013843;28;20732;-71
2022/09/28 04:24:20;;;;;;;1.20;1.10;;;;;;;4.17;100.00;98925.34;5016929;28;20511;-72
2022/09/28 04:26:47;;;;;;;1.63;1.50;;;;;;;4.19;100.00;98926.16;5008812;28;20209;-72
2022/09/28 04:29:15;;;;;;;1.70;1.60;;;;;;;4.21;100.00;98915.81;5011274;28;20231;-72
2022/09/28 04:31:48;;;;;;;1.97;1.47;;;;;;;4.25;100.00;98913.06;5015737;28;20217;-72
2022/09/28 04:34:17;;;;;;;2.47;1.77;;;;;;;4.30;100.00;98923.28;5014231;28;20587;-71
2022/09/28 04:36:44;;;;;;;2.23;1.60;;;;;;;4.17;100.00;98923.63;5027392;28;20451;-72
2022/09/28 04:39:11;;;;;;;2.53;1.67;;;;;;;4.20;100.00;98929.56;5015014;28;20225;-71
2022/09/28 04:41:39;;;;;;;5.63;2.10;;;;;;;4.25;100.00;98923.41;5018838;28;20235;-72
2022/09/28 04:44:05;;;;;;;1.30;1.20;;;;;;;4.24;100.00;98928.59;5014584;28;20299;-71
2022/09/28 04:46:32;;;;;;;1.70;1.50;;;;;;;4.14;100.00;98936.59;5026545;28;20200;-72
2022/09/28 04:49:28;;;;;;;1.40;1.30;;;;;;;4.28;100.00;98933.63;4979678;28;20320;-71
2022/09/28 04:51:57;;;;;;;1.57;1.43;;;;;;;4.25;100.00;98941.44;5016459;28;20592;-71
2022/09/28 04:54:23;;;;;;;2.90;2.60;;;;;;;4.26;100.00;98942.31;5012436;28;20212;-71
2022/09/28 04:56:52;;;;;;;3.70;2.87;;;;;;;4.25;100.00;98944.03;5015382;28;20220;-71
2022/09/28 04:59:19;;;;;;;2.00;1.80;;;;;;;4.28;100.00;98948.28;5011967;28;20712;-71
2022/09/28 05:01:46;;;;;;;3.13;1.97;;;;;;;4.21;100.00;98949.34;5010845;28;20248;-71
2022/09/28 05:04:38;;;;;;;5.93;2.63;;;;;;;4.20;100.00;98957.94;5012234;28;20703;-71
2022/09/28 05:07:11;;;;;;;2.30;2.10;;;;;;;4.31;100.00;98955.91;5012374;28;20255;-72
2022/09/28 05:09:38;;;;;;;3.43;3.00;;;;;;;4.40;100.00;98963.44;5008701;28;20228;-71
2022/09/28 05:12:06;;;;;;;3.40;3.07;;;;;;;4.35;100.00;98963.53;5014233;28;20296;-70
2022/09/28 05:14:32;;;;;;;3.40;3.10;;;;;;;4.38;100.00;98962.63;5016485;28;20698;-70
2022/09/28 05:16:58;;;;;;;4.13;3.73;;;;;;;4.48;100.00;98963.19;5014363;28;20228;-71
2022/09/28 05:19:25;;;;;;;3.27;2.97;;;;;;;4.55;100.00;98956.97;5014598;28;20230;-71
2022/09/28 05:21:53;;;;;;;4.80;4.13;;;;;;;4.61;100.00;98959.41;5017163;28;20676;-71
2022/09/28 05:24:19;;;;;;;5.10;4.60;;;;;;;4.77;100.00;98959.81;5011741;28;20469;-71
2022/09/28 05:26:51;;;;;;;9.07;8.17;;;;;;;4.84;100.00;98951.00;5020664;28;20672;-71
2022/09/28 05:29:19;;;;;;;6.17;5.33;;;;;;;4.85;100.00;98944.91;5015245;28;20222;-72
2022/09/28 05:32:06;;;;;;;7.90;6.13;;;;;;;4.92;100.00;98938.72;5015649;28;20591;-72
2022/09/28 05:34:41;;;;;;;8.57;6.70;;;;;;;5.03;100.00;98943.53;5014821;28;20317;-71
2022/09/28 05:37:11;;;;;;;4.77;4.27;;;;;;;5.17;100.00;98931.94;5012090;28;20777;-72
2022/09/28 05:39:38;;;;;;;5.67;4.30;;;;;;;5.30;100.00;98930.66;5016977;28;20237;-70
2022/09/28 05:42:04;;;;;;;5.67;4.57;;;;;;;5.26;100.00;98919.56;5019168;28;20188;-71
2022/09/28 05:44:32;;;;;;;4.90;4.40;;;;;;;5.28;100.00;98917.78;5015969;28;20279;-71
2022/09/28 05:46:58;;;;;;;3.10;2.40;;;;;;;5.31;100.00;98909.94;5017395;28;20216;-71
2022/09/28 05:49:27;;;;;;;2.57;2.23;;;;;;;5.37;100.00;98906.31;5019274;28;20216;-71
2022/09/28 05:51:54;;;;;;;2.43;2.17;;;;;;;5.38;100.00;98897.69;5026359;28;20220;-72
2022/09/28 05:54:20;;;;;;;2.13;1.90;;;;;;;5.39;100.00;98893.34;5016085;28;20587;-71
2022/09/28 05:56:47;;;;;;;3.10;1.80;;;;;;;5.53;100.00;98891.16;5013953;28;20201;-71
2022/09/28 05:59:14;;;;;;;2.60;2.00;;;;;;;5.68;100.00;98888.06;5015214;28;21308;-71
2022/09/28 06:01:42;;;;;;;4.70;2.27;;;;;;;5.76;100.00;98885.19;5014977;28;20772;-72
2022/09/28 06:04:10;;;;;;;2.40;2.20;;;;;;;5.83;100.00;98889.25;5010985;28;20327;-71
2022/09/28 06:06:37;;;;;;;5.20;3.40;;;;;;;5.91;100.00;98893.31;5014418;28;20224;-72
2022/09/28 06:09:04;;;;;;;3.03;2.73;;;;;;;5.96;100.00;98891.44;5014734;28;20731;-71
2022/09/28 06:12:03;;;;;;;3.70;2.10;;;;;;;5.95;100.00;98884.56;4998883;28;20216;-71
2022/09/28 06:14:42;;;;;;;2.87;2.50;;;;;;;5.93;100.00;98884.63;5011763;28;20206;-70
2022/09/28 06:17:10;;;;;;;2.80;2.13;;;;;;;5.93;100.00;98879.44;5012448;28;20200;-71
2022/09/28 06:19:36;;;;;;;2.33;2.13;;;;;;;5.96;100.00;98873.34;5014171;28;20216;-71
2022/09/28 06:22:07;;;;;;;3.10;2.10;;;;;;;5.98;100.00;98874.13;5005981;28;20202;-71
2022/09/28 06:24:42;;;;;;;2.80;2.40;;;;;;;6.04;100.00;98898.06;5011996;28;20207;-71
2022/09/28 06:27:08;;;;;;;3.60;2.53;;;;;;;6.07;100.00;98891.94;5012865;28;20215;-71
2022/09/28 06:29:34;;;;;;;4.87;4.33;;;;;;;6.09;100.00;98897.06;5013267;28;20886;-70
2022/09/28 06:32:02;;;;;;;3.13;2.33;;;;;;;6.15;100.00;98897.66;5015149;28;20251;-72
2022/09/28 06:34:30;;;;;;;2.77;2.47;;;;;;;6.21;100.00;98894.88;5013127;28;20200;-71
2022/09/28 06:36:56;;;;;;;5.07;2.47;;;;;;;6.27;100.00;98900.72;5015648;28;20204;-71
2022/09/28 06:39:23;;;;;;;2.50;2.30;;;;;;;6.28;100.00;98892.91;5030310;28;20266;-71
2022/09/28 06:41:50;;;;;;;3.47;2.60;;;;;;;6.41;100.00;98894.13;5014224;28;20198;-72
2022/09/28 06:44:19;;;;;;;3.23;2.50;;;;;;;6.49;100.00;98893.88;5034360;28;20211;-71
2022/09/28 06:47:04;;;;;;;2.67;2.10;;;;;;;6.60;100.00;98891.72;5020089;28;20598;-71
2022/09/28 06:49:54;;;;;;;4.77;2.27;;;;;;;6.68;100.00;98882.81;5007130;28;20246;-71
2022/09/28 06:52:38;;;;;;;2.50;2.20;;;;;;;6.76;100.00;98885.97;5016552;28;20268;-71
2022/09/28 06:55:13;;;;;;;5.57;2.07;;;;;;;6.85;100.00;98877.84;5013471;28;20607;-71
2022/09/28 06:57:44;;;;;;;2.33;2.00;;;;;;;6.91;100.00;98877.63;5012357;28;21119;-71
2022/09/28 07:00:11;;;;;;;2.77;2.10;;;;;;;7.05;100.00;98879.63;5014671;28;20282;-72
2022/09/28 07:02:38;;;;;;;2.90;2.40;;;;;;;7.14;100.00;98878.44;5009322;28;20317;-71
2022/09/28 07:05:13;;;;;;;2.17;1.93;;;;;;;7.16;100.00;98887.00;5016044;28;20201;-71
2022/09/28 07:07:55;;;;;;;3.00;2.20;;;;;;;7.22;100.00;98878.13;5011538;28;20598;-71
2022/09/28 07:10:42;;;;;;;2.77;2.23;;;;;;;7.24;100.00;98873.72;5015986;28;20254;-70
2022/09/28 07:13:22;;;;;;;2.87;2.10;;;;;;;7.30;100.00;98876.06;5015563;28;20218;-71
2022/09/28 07:15:54;;;;;;;4.53;2.73;;;;;;;7.44;100.00;98875.50;5011843;28;20202;-70
2022/09/28 07:18:20;;;;;;;2.40;2.20;;;;;;;7.54;100.00;98880.25;5033037;28;20194;-71
2022/09/28 07:20:48;;;;;;;3.63;3.03;;;;;;;7.51;100.00;98872.63;5016425;28;20203;-71
2022/09/28 07:23:15;;;;;;;8.63;7.50;;;;;;;7.49;100.00;98866.66;5010446;28;20671;-71
2022/09/28 07:26:14;;;;;;;3.00;2.70;;;;;;;7.56;100.00;98864.63;5014926;28;20207;-70
2022/09/28 07:28:54;;;;;;;3.47;2.63;;;;;;;7.63;100.00;98865.22;5032879;28;20216;-70
2022/09/28 07:31:39;;;;;;;4.23;2.60;;;;;;;7.69;100.00;98865.81;5013292;28;20260;-71
2022/09/28 07:34:21;;;;;;;4.30;2.30;;;;;;;7.73;100.00;98862.16;5013333;28;20195;-71
2022/09/28 07:37:07;;;;;;;3.10;2.37;;;;;;;7.80;100.00;98867.94;5013456;28;20191;-72
2022/09/28 07:41:10;;;;;;;4.17;3.50;;;;;;;7.91;100.00;98873.50;5014273;28;20796;-71
2022/09/28 07:42:20;;;;;;;3.67;2.27;;;;;;;7.98;100.00;98863.72;5013174;28;20366;-71
2022/09/28 07:44:46;;;;;;;3.17;2.57;;;;;;;8.08;100.00;98854.59;5014710;28;20567;-72
2022/09/28 07:47:13;;;;;;;3.17;2.60;;;;;;;8.19;100.00;98861.09;5010498;28;20215;-71
2022/09/28 07:49:59;;;;;;;3.93;2.87;;;;;;;8.26;100.00;98876.31;5016238;28;20226;-70
2022/09/28 07:52:40;;;;;;;5.67;2.97;;;;;;;8.28;100.00;98873.66;5015171;28;20596;-72
2022/09/28 07:55:35;;;;;;;5.43;3.30;;;;;;;8.26;100.00;98872.88;5002316;28;20213;-71
2022/09/28 07:58:12;;;;;;;7.00;3.20;;;;;;;8.37;100.00;98849.84;5016169;28;20215;-71
2022/09/28 08:00:50;;;;;;;7.60;3.93;;;;;;;8.44;100.00;98853.06;5013510;28;20274;-71
2022/09/28 08:03:18;;;;;;;4.83;3.37;;;;;;;8.59;100.00;98859.31;5013768;28;20227;-71
2022/09/28 08:05:46;;;;;;;4.77;3.80;;;;;;;8.62;100.00;98852.22;5017007;28;20198;-71
2022/09/28 08:08:15;;;;;;;7.07;4.47;;;;;;;8.70;100.00;98857.88;5022604;28;20214;-71
2022/09/28 08:10:42;;;;;;;6.23;4.17;;;;;;;8.71;100.00;98861.34;5021244;28;20581;-71
2022/09/28 08:13:20;;;;;;;8.03;4.63;;;;;;;8.69;100.00;98870.97;5022709;28;20223;-71
2022/09/28 08:16:07;;;;;;;7.03;3.90;;;;;;;8.73;100.00;98876.88;5021600;28;20696;-71
2022/09/28 08:18:39;;;;;;;10.33;4.50;;;;;;;8.76;100.00;98871.50;5020609;28;20307;-72
2022/09/28 08:23:52;;;;;;;6.80;4.57;;;;;;;8.83;100.00;98873.78;5017747;28;20351;-70
2022/09/28 08:26:19;;;;;;;10.10;4.20;;;;;;;8.80;100.00;98868.72;5012595;28;20324;-70
2022/09/28 08:28:46;;;;;;;6.57;4.47;;;;;;;8.87;100.00;98862.31;5016384;28;20224;-71
2022/09/28 08:31:40;;;;;;;7.87;4.17;;;;;;;8.96;100.00;98855.84;5020566;28;20217;-71
2022/09/28 08:34:11;;;;;;;8.83;4.40;;;;;;;9.02;100.00;98849.50;5019283;28;20217;-71
2022/09/28 08:37:14;;;;;;;6.70;4.23;;;;;;;9.10;100.00;98845.63;5020134;28;20208;-71
2022/09/28 08:40:17;;;;;;;10.03;4.70;;;;;;;9.12;100.00;98842.94;5020010;28;20227;-71
2022/09/28 08:43:22;;;;;;;9.43;4.90;;;;;;;9.06;100.00;98836.28;5021721;28;20303;-70
2022/09/28 08:46:09;;;;;;;5.83;4.30;;;;;;;9.08;100.00;98837.06;5016853;28;20591;-71
2022/09/28 08:49:02;;;;;;;6.70;4.63;;;;;;;9.09;100.00;98830.09;5023009;28;20360;-71
2022/09/28 08:51:54;;;;;;;7.80;3.97;;;;;;;9.06;100.00;98838.88;5021802;28;20207;-70
2022/09/28 08:54:37;;;;;;;7.80;4.00;;;;;;;9.10;100.00;98844.78;5018799;28;20226;-71
2022/09/28 08:57:12;;;;;;;7.10;4.20;;;;;;;9.14;100.00;98854.09;5019643;28;20223;-71
2022/09/28 08:59:46;;;;;;;5.90;4.10;;;;;;;9.14;100.00;98856.72;5018992;28;20771;-71
2022/09/28 09:02:22;;;;;;;6.80;4.30;;;;;;;9.16;100.00;98848.84;5018924;28;20199;-71
2022/09/28 09:04:50;;;;;;;5.63;3.50;;;;;;;9.19;100.00;98846.94;5021715;28;20204;-71
2022/09/28 09:07:55;;;;;;;6.00;3.73;;;;;;;9.29;100.00;98842.13;5016680;28;20632;-71
2022/09/28 09:10:38;;;;;;;7.10;4.17;;;;;;;9.33;100.00;98846.25;5026008;28;20239;-71
2022/09/28 09:13:22;;;;;;;5.77;3.50;;;;;;;9.39;100.00;98843.38;5017319;28;20218;-70
2022/09/28 09:15:55;;;;;;;4.70;3.20;;;;;;;9.43;100.00;98839.69;5014639;28;20205;-71
2022/09/28 09:18:59;;;;;;;6.17;3.50;;;;;;;9.45;100.00;98845.66;5008136;28;20702;-72
2022/09/28 09:21:41;;;;;;;7.03;3.83;;;;;;;9.56;100.00;98846.88;5020744;28;20217;-72
2022/09/28 09:24:23;;;;;;;5.77;3.90;;;;;;;9.46;100.00;98856.88;5035131;28;20206;-71
2022/09/28 09:26:58;;;;;;;5.87;4.00;;;;;;;9.44;100.00;98846.56;5016407;28;20209;-70
2022/09/28 09:29:37;;;;;;;4.93;3.80;;;;;;;9.45;100.00;98858.66;5021963;28;20238;-71
2022/09/28 09:32:19;;;;;;;7.70;4.27;;;;;;;9.45;100.00;98860.41;5017595;28;20199;-72
2022/09/28 09:35:18;;;;;;;9.47;3.83;;;;;;;9.43;100.00;98855.28;5014803;28;20635;-72
2022/09/28 09:38:29;;;;;;;5.17;3.70;;;;;;;9.53;100.00;98855.66;5016381;28;20680;-71
2022/09/28 09:41:20;;;;;;;6.47;4.00;;;;;;;9.52;100.00;98855.75;5013080;28;20283;-71
2022/09/28 09:44:20;;;;;;;5.67;3.77;;;;;;;9.54;100.00;98852.16;5016596;28;20208;-71
2022/09/28 09:46:56;;;;;;;7.67;4.17;;;;;;;9.60;100.00;98848.41;5012064;28;20280;-71
2022/09/28 09:49:45;;;;;;;4.47;3.33;;;;;;;9.66;100.00;98855.91;5018892;28;20233;-71
2022/09/28 09:52:18;;;;;;;5.60;3.43;;;;;;;9.66;100.00;98841.13;5016991;28;20299;-71
2022/09/28 09:54:51;;;;;;;4.53;3.10;;;;;;;9.63;100.00;98838.66;5017089;28;20610;-71
2022/09/28 09:57:40;;;;;;;5.93;3.37;;;;;;;9.59;100.00;98844.13;5012722;28;20217;-71
2022/09/28 10:00:17;;;;;;;5.10;3.13;;;;;;;9.62;100.00;98844.81;5009620;28;20227;-71
2022/09/28 10:03:05;;;;;;;4.37;2.97;;;;;;;9.55;100.00;98845.19;5014889;28;20214;-71
2022/09/28 10:05:42;;;;;;;4.17;3.20;;;;;;;9.45;100.00;98840.44;5016827;28;20221;-70
2022/09/28 10:08:15;;;;;;;4.07;2.93;;;;;;;9.42;100.00;98838.00;5011877;28;20207;-72
2022/09/28 10:10:48;;;;;;;5.57;3.23;;;;;;;9.42;100.00;98840.59;5027471;28;20226;-72
2022/09/28 10:13:17;;;;;;;7.43;4.40;;;;;;;9.43;100.00;98842.28;5013582;28;20211;-71
2022/09/28 10:15:46;;;;;;;5.27;4.07;;;;;;;9.47;100.00;98848.19;5009010;28;20214;-71
2022/09/28 10:18:27;;;;;;;4.07;3.00;;;;;;;9.43;100.00;98839.69;5007544;28;20220;-70
2022/09/28 10:21:13;;;;;;;3.70;2.73;;;;;;;9.38;100.00;98835.63;5015893;28;20204;-71
2022/09/28 10:23:55;;;;;;;4.50;3.20;;;;;;;9.37;100.00;98841.75;5033089;28;20209;-71
2022/09/28 10:26:25;;;;;;;3.30;2.80;;;;;;;9.34;100.00;98839.28;5031604;28;20298;-71
2022/09/28 10:28:55;;;;;;;3.37;3.03;;;;;;;9.28;100.00;98835.22;5013748;28;20618;-71
2022/09/28 10:31:40;;;;;;;5.90;3.10;;;;;;;9.27;100.00;98836.16;5014827;28;20564;-71
2022/09/28 10:34:16;;;;;;;3.37;2.60;;;;;;;9.20;100.00;98834.75;5026634;28;20223;-71
2022/09/28 10:36:48;;;;;;;3.00;2.40;;;;;;;9.20;100.00;98837.34;5015088;28;20236;-72
2022/09/28 10:39:27;;;;;;;3.50;2.53;;;;;;;9.10;100.00;98845.63;5010277;28;20401;-72
2022/09/28 10:41:54;;;;;;;4.10;2.97;;;;;;;9.10;100.00;98840.41;5012575;28;20260;-70
2022/09/28 10:44:27;;;;;;;3.30;2.83;;;;;;;9.05;100.00;98841.56;5010605;28;20226;-72
2022/09/28 10:47:25;;;;;;;4.33;3.03;;;;;;;9.09;100.00;98837.88;5031267;28;20560;-71
2022/09/28 10:49:55;;;;;;;3.60;2.77;;;;;;;9.10;100.00;98840.41;5016845;28;20249;-71
2022/09/28 10:52:38;;;;;;;4.93;3.07;;;;;;;9.12;100.00;98835.13;5018981;28;20301;-71
2022/09/28 10:55:27;;;;;;;5.10;3.27;;;;;;;9.16;100.00;98839.25;5031671;28;20609;-72
2022/09/28 10:57:54;;;;;;;3.70;2.93;;;;;;;9.20;100.00;98842.56;5016905;28;20205;-71
2022/09/28 11:00:34;;;;;;;6.10;3.80;;;;;;;9.24;100.00;98836.31;5015965;28;20245;-71
2022/09/28 11:03:19;;;;;;;4.40;3.70;;;;;;;9.28;100.00;98835.22;5009936;28;20197;-71
2022/09/28 11:05:56;;;;;;;4.37;3.50;;;;;;;9.29;100.00;98836.94;5015101;28;20546;-72
2022/09/28 11:08:29;;;;;;;4.63;3.43;;;;;;;9.27;100.00;98830.97;5033308;28;20279;-71
2022/09/28 11:11:03;;;;;;;5.33;2.90;;;;;;;9.24;100.00;98837.16;5029219;28;20234;-71
2022/09/28 11:13:30;;;;;;;5.40;3.70;;;;;;;9.25;100.00;98830.19;5014326;28;20214;-70
2022/09/28 11:16:18;;;;;;;5.03;4.13;;;;;;;9.27;100.00;98825.75;5015046;28;20746;-72
2022/09/28 11:18:44;;;;;;;6.00;4.30;;;;;;;9.27;100.00;98829.19;5013661;28;20221;-70
2022/09/28 11:21:15;;;;;;;4.50;3.47;;;;;;;9.32;100.00;98830.72;5015902;28;20295;-71
2022/09/28 11:24:00;;;;;;;4.27;2.90;;;;;;;9.41;100.00;98833.72;5009955;28;20207;-71
2022/09/28 11:26:36;;;;;;;4.30;3.00;;;;;;;9.39;100.00;98821.69;5012776;28;20686;-71
2022/09/28 11:29:06;;;;;;;3.43;2.70;;;;;;;9.34;100.00;98832.34;5017949;28;20708;-72
2022/09/28 11:31:45;;;;;;;4.43;2.23;;;;;;;9.23;100.00;98825.06;5031460;28;20238;-72
2022/09/28 11:34:25;;;;;;;2.60;2.13;;;;;;;9.32;100.00;98828.13;5017700;28;20237;-71
2022/09/28 11:37:19;;;;;;;3.73;2.33;;;;;;;9.37;100.00;98823.53;5017256;28;20194;-71
2022/09/28 11:39:54;;;;;;;2.60;1.77;;;;;;;9.17;100.00;98827.13;5035065;28;20716;-72
2022/09/28 11:42:31;;;;;;;1.67;1.40;;;;;;;9.13;100.00;98831.63;5017188;28;20682;-71
2022/09/28 11:45:16;;;;;;;1.67;1.40;;;;;;;9.10;100.00;98822.22;5032616;28;20259;-71
2022/09/28 11:47:49;;;;;;;1.63;1.30;;;;;;;9.04;100.00;98832.06;5042016;28;20202;-71
2022/09/28 11:50:23;;;;;;;2.70;1.17;;;;;;;9.10;100.00;98826.59;5018709;28;20240;-71
2022/09/28 11:52:58;;;;;;;3.50;1.30;;;;;;;9.20;100.00;98821.75;5015704;28;20217;-71
2022/09/28 11:55:32;;;;;;;1.17;1.13;;;;;;;9.37;100.00;98820.94;5014390;28;20206;-71
2022/09/28 11:58:05;;;;;;;3.83;1.33;;;;;;;9.49;100.00;98825.53;5015925;28;20196;-72
2022/09/28 12:00:39;;;;;;;2.00;1.17;;;;;;;9.58;100.00;98822.44;5034056;28;20377;-72
2022/09/28 12:03:08;;;;;;;1.50;1.30;;;;;;;9.63;100.00;98824.81;5017550;28;20206;-71
2022/09/28 12:05:41;;;;;;;1.97;1.53;;;;;;;9.61;100.00;98822.31;5020419;28;20335;-71
2022/09/28 12:08:15;;;;;;;1.50;1.40;;;;;;;9.59;100.00;98828.50;5023407;28;20708;-71